Terminal Aerodrome Forecast
Issued by NWS Shreveport, LA

Home | Current Version | Previous Version | Text Only | Print | Product List | Glossary On
Versions: 1 2 3 4 5 6 7 8 9 10 11 12
000
FTUS44 KSHV 041128
TAFMLU
TAF
KMLU 041128Z 0412/0512 15005KT P6SM SCT060 SCT250
     FM041600 15008KT P6SM SCT045 SCT250
     FM050100 15003KT P6SM SCT060 SCT250=

USA.gov is the U.S. government's official web portal to all federal, state and local government web resources and services.